sensor_id;sensor_type;location;lat;lon;timestamp;pressure;altitude;pressure_sealevel;temperature;humidity
77799;BME280;66989;50.426;15.352;2023-08-17T00:00:58;98464.94;;;21.09;77.03
77799;BME280;66989;50.426;15.352;2023-08-17T00:03:24;98480.19;;;21.08;77.88
77799;BME280;66989;50.426;15.352;2023-08-17T00:05:49;98480.72;;;21.04;78.72
77799;BME280;66989;50.426;15.352;2023-08-17T00:08:14;98465.25;;;20.83;79.97
77799;BME280;66989;50.426;15.352;2023-08-17T00:10:40;98479.53;;;20.75;80.90
77799;BME280;66989;50.426;15.352;2023-08-17T00:13:05;98490.28;;;20.67;82.26
77799;BME280;66989;50.426;15.352;2023-08-17T00:15:30;98474.59;;;20.56;83.73
77799;BME280;66989;50.426;15.352;2023-08-17T00:17:57;98483.66;;;20.46;85.31
77799;BME280;66989;50.426;15.352;2023-08-17T00:20:22;98462.03;;;20.48;85.44
77799;BME280;66989;50.426;15.352;2023-08-17T00:22:48;98479.31;;;20.45;86.06
77799;BME280;66989;50.426;15.352;2023-08-17T00:25:13;98490.03;;;20.45;87.24
77799;BME280;66989;50.426;15.352;2023-08-17T00:27:39;98484.66;;;20.45;87.92
77799;BME280;66989;50.426;15.352;2023-08-17T00:30:05;98495.72;;;20.42;88.33
77799;BME280;66989;50.426;15.352;2023-08-17T00:32:30;98504.59;;;20.35;88.87
77799;BME280;66989;50.426;15.352;2023-08-17T00:34:55;98508.47;;;20.24;90.22
77799;BME280;66989;50.426;15.352;2023-08-17T00:37:21;98508.16;;;20.19;90.77
77799;BME280;66989;50.426;15.352;2023-08-17T00:39:46;98514.53;;;20.18;90.94
77799;BME280;66989;50.426;15.352;2023-08-17T00:42:12;98500.47;;;20.16;90.94
77799;BME280;66989;50.426;15.352;2023-08-17T00:44:37;98493.41;;;20.23;90.52
77799;BME280;66989;50.426;15.352;2023-08-17T00:47:03;98478.50;;;20.29;89.89
77799;BME280;66989;50.426;15.352;2023-08-17T00:49:30;98462.44;;;20.37;89.36
77799;BME280;66989;50.426;15.352;2023-08-17T00:51:56;98461.72;;;20.51;88.51
77799;BME280;66989;50.426;15.352;2023-08-17T00:54:23;98464.81;;;20.63;86.89
77799;BME280;66989;50.426;15.352;2023-08-17T00:56:49;98462.63;;;20.74;86.69
77799;BME280;66989;50.426;15.352;2023-08-17T00:59:14;98464.91;;;20.86;85.88
77799;BME280;66989;50.426;15.352;2023-08-17T01:01:40;98458.16;;;20.98;84.98
77799;BME280;66989;50.426;15.352;2023-08-17T01:04:05;98466.50;;;21.03;84.18
77799;BME280;66989;50.426;15.352;2023-08-17T01:06:31;98463.75;;;21.11;83.68
77799;BME280;66989;50.426;15.352;2023-08-17T01:08:56;98454.63;;;21.20;82.82
77799;BME280;66989;50.426;15.352;2023-08-17T01:11:29;98452.88;;;21.27;82.05
77799;BME280;66989;50.426;15.352;2023-08-17T01:14:04;98455.22;;;21.31;81.31
77799;BME280;66989;50.426;15.352;2023-08-17T01:16:40;98445.88;;;21.26;81.43
77799;BME280;66989;50.426;15.352;2023-08-17T01:19:08;98445.22;;;21.24;81.21
77799;BME280;66989;50.426;15.352;2023-08-17T01:21:42;98436.16;;;21.25;80.74
77799;BME280;66989;50.426;15.352;2023-08-17T01:24:11;98435.50;;;21.23;80.75
77799;BME280;66989;50.426;15.352;2023-08-17T01:26:36;98432.34;;;21.20;80.94
77799;BME280;66989;50.426;15.352;2023-08-17T01:29:02;98437.06;;;21.18;80.77
77799;BME280;66989;50.426;15.352;2023-08-17T01:31:36;98434.09;;;21.13;80.99
77799;BME280;66989;50.426;15.352;2023-08-17T01:34:08;98441.09;;;21.14;80.81
77799;BME280;66989;50.426;15.352;2023-08-17T01:36:42;98443.84;;;21.06;81.04
77799;BME280;66989;50.426;15.352;2023-08-17T01:39:10;98439.19;;;20.99;81.26
77799;BME280;66989;50.426;15.352;2023-08-17T01:41:37;98438.69;;;20.96;82.18
77799;BME280;66989;50.426;15.352;2023-08-17T01:44:04;98442.28;;;20.88;82.64
77799;BME280;66989;50.426;15.352;2023-08-17T01:46:31;98437.63;;;20.82;83.09
77799;BME280;66989;50.426;15.352;2023-08-17T01:48:57;98429.59;;;20.82;83.40
77799;BME280;66989;50.426;15.352;2023-08-17T01:51:23;98430.22;;;20.84;83.28
77799;BME280;66989;50.426;15.352;2023-08-17T01:53:48;98420.53;;;20.83;83.71
77799;BME280;66989;50.426;15.352;2023-08-17T01:56:14;98423.56;;;20.80;83.48
77799;BME280;66989;50.426;15.352;2023-08-17T01:58:39;98416.03;;;20.76;83.78
77799;BME280;66989;50.426;15.352;2023-08-17T02:01:05;98416.22;;;20.66;84.61
77799;BME280;66989;50.426;15.352;2023-08-17T02:03:33;98413.59;;;20.58;84.82
77799;BME280;66989;50.426;15.352;2023-08-17T02:05:59;98412.81;;;20.49;85.22
77799;BME280;66989;50.426;15.352;2023-08-17T02:08:24;98410.00;;;20.42;85.80
77799;BME280;66989;50.426;15.352;2023-08-17T02:10:50;98410.69;;;20.36;86.07
77799;BME280;66989;50.426;15.352;2023-08-17T02:13:16;98411.41;;;20.30;86.56
77799;BME280;66989;50.426;15.352;2023-08-17T02:15:42;98413.78;;;20.25;87.04
77799;BME280;66989;50.426;15.352;2023-08-17T02:18:07;98415.94;;;20.21;87.02
77799;BME280;66989;50.426;15.352;2023-08-17T02:20:33;98409.44;;;20.16;87.54
77799;BME280;66989;50.426;15.352;2023-08-17T02:22:59;98404.59;;;20.11;88.10
77799;BME280;66989;50.426;15.352;2023-08-17T02:25:24;98412.81;;;20.10;88.21
77799;BME280;66989;50.426;15.352;2023-08-17T02:27:49;98412.97;;;20.08;88.30
77799;BME280;66989;50.426;15.352;2023-08-17T02:30:15;98410.47;;;20.07;88.37
77799;BME280;66989;50.426;15.352;2023-08-17T02:32:40;98410.47;;;20.07;88.67
77799;BME280;66989;50.426;15.352;2023-08-17T02:35:07;98407.28;;;20.11;88.41
77799;BME280;66989;50.426;15.352;2023-08-17T02:37:32;98410.78;;;20.12;88.22
77799;BME280;66989;50.426;15.352;2023-08-17T02:39:58;98403.78;;;20.11;88.30
77799;BME280;66989;50.426;15.352;2023-08-17T02:42:23;98403.09;;;20.09;88.74
77799;BME280;66989;50.426;15.352;2023-08-17T02:44:48;98401.09;;;20.11;88.52
77799;BME280;66989;50.426;15.352;2023-08-17T02:47:14;98405.78;;;20.09;88.67
77799;BME280;66989;50.426;15.352;2023-08-17T02:49:40;98408.81;;;20.06;88.93
77799;BME280;66989;50.426;15.352;2023-08-17T02:52:05;98398.78;;;20.00;88.58
77799;BME280;66989;50.426;15.352;2023-08-17T02:54:30;98399.13;;;19.96;88.95
77799;BME280;66989;50.426;15.352;2023-08-17T02:56:57;98403.00;;;19.94;89.16
77799;BME280;66989;50.426;15.352;2023-08-17T02:59:22;98397.97;;;19.91;88.86
77799;BME280;66989;50.426;15.352;2023-08-17T03:01:48;98395.13;;;19.92;88.97
77799;BME280;66989;50.426;15.352;2023-08-17T03:04:13;98397.78;;;19.92;88.39
77799;BME280;66989;50.426;15.352;2023-08-17T03:06:39;98392.44;;;19.92;88.69
77799;BME280;66989;50.426;15.352;2023-08-17T03:09:04;98397.78;;;19.92;88.28
77799;BME280;66989;50.426;15.352;2023-08-17T03:11:29;98394.28;;;19.92;88.59
77799;BME280;66989;50.426;15.352;2023-08-17T03:13:55;98403.97;;;19.93;88.23
77799;BME280;66989;50.426;15.352;2023-08-17T03:16:25;98396.13;;;19.91;87.84
77799;BME280;66989;50.426;15.352;2023-08-17T03:18:51;98397.16;;;19.90;87.33
77799;BME280;66989;50.426;15.352;2023-08-17T03:21:17;98400.84;;;19.89;86.71
77799;BME280;66989;50.426;15.352;2023-08-17T03:23:43;98401.34;;;19.85;86.39
77799;BME280;66989;50.426;15.352;2023-08-17T03:26:09;98400.66;;;19.83;86.16
77799;BME280;66989;50.426;15.352;2023-08-17T03:28:34;98401.84;;;19.80;86.80
77799;BME280;66989;50.426;15.352;2023-08-17T03:31:00;98404.84;;;19.77;87.00
77799;BME280;66989;50.426;15.352;2023-08-17T03:33:27;98407.72;;;19.76;87.10
77799;BME280;66989;50.426;15.352;2023-08-17T03:35:52;98410.56;;;19.74;87.63
77799;BME280;66989;50.426;15.352;2023-08-17T03:38:17;98415.19;;;19.72;87.55
77799;BME280;66989;50.426;15.352;2023-08-17T03:40:43;98424.41;;;19.69;87.45
77799;BME280;66989;50.426;15.352;2023-08-17T03:43:09;98426.59;;;19.66;87.45
77799;BME280;66989;50.426;15.352;2023-08-17T03:45:34;98427.59;;;19.65;87.40
77799;BME280;66989;50.426;15.352;2023-08-17T03:48:01;98424.59;;;19.60;87.41
77799;BME280;66989;50.426;15.352;2023-08-17T03:50:27;98438.97;;;19.59;87.22
77799;BME280;66989;50.426;15.352;2023-08-17T03:52:53;98436.63;;;19.56;87.59
77799;BME280;66989;50.426;15.352;2023-08-17T03:55:18;98449.53;;;19.52;87.07
77799;BME280;66989;50.426;15.352;2023-08-17T03:57:44;98456.69;;;19.52;87.10
77799;BME280;66989;50.426;15.352;2023-08-17T04:00:10;98458.22;;;19.54;87.09
77799;BME280;66989;50.426;15.352;2023-08-17T04:02:36;98459.88;;;19.55;86.73
77799;BME280;66989;50.426;15.352;2023-08-17T04:05:02;98462.38;;;19.57;86.16
77799;BME280;66989;50.426;15.352;2023-08-17T04:07:27;98461.38;;;19.58;86.36
77799;BME280;66989;50.426;15.352;2023-08-17T04:09:53;98465.72;;;19.59;85.94
77799;BME280;66989;50.426;15.352;2023-08-17T04:12:18;98466.38;;;19.61;86.40
77799;BME280;66989;50.426;15.352;2023-08-17T04:14:44;98461.38;;;19.66;85.87
77799;BME280;66989;50.426;15.352;2023-08-17T04:17:10;98453.16;;;19.67;85.55
77799;BME280;66989;50.426;15.352;2023-08-17T04:19:35;98468.06;;;19.70;85.02
77799;BME280;66989;50.426;15.352;2023-08-17T04:22:00;98480.13;;;19.74;85.34
77799;BME280;66989;50.426;15.352;2023-08-17T04:24:26;98484.16;;;19.78;85.00
77799;BME280;66989;50.426;15.352;2023-08-17T04:26:51;98479.28;;;19.82;84.85
77799;BME280;66989;50.426;15.352;2023-08-17T04:29:16;98486.16;;;19.84;84.37
77799;BME280;66989;50.426;15.352;2023-08-17T04:31:42;98494.00;;;19.86;84.00
77799;BME280;66989;50.426;15.352;2023-08-17T04:34:07;98502.22;;;19.84;84.29
77799;BME280;66989;50.426;15.352;2023-08-17T04:36:32;98491.81;;;19.81;84.66
77799;BME280;66989;50.426;15.352;2023-08-17T04:38:58;98495.50;;;19.80;84.61
77799;BME280;66989;50.426;15.352;2023-08-17T04:41:24;98489.66;;;19.77;84.76
77799;BME280;66989;50.426;15.352;2023-08-17T04:43:49;98485.97;;;19.78;84.61
77799;BME280;66989;50.426;15.352;2023-08-17T04:46:15;98496.66;;;19.78;84.46
77799;BME280;66989;50.426;15.352;2023-08-17T04:48:40;98495.34;;;19.74;84.54
77799;BME280;66989;50.426;15.352;2023-08-17T04:51:06;98507.19;;;19.71;84.72
77799;BME280;66989;50.426;15.352;2023-08-17T04:53:31;98502.00;;;19.69;84.75
77799;BME280;66989;50.426;15.352;2023-08-17T04:55:58;98514.69;;;19.67;85.02
77799;BME280;66989;50.426;15.352;2023-08-17T04:58:24;98504.88;;;19.68;85.26
77799;BME280;66989;50.426;15.352;2023-08-17T05:00:50;98505.84;;;19.67;85.19
77799;BME280;66989;50.426;15.352;2023-08-17T05:03:15;98505.84;;;19.67;84.97
77799;BME280;66989;50.426;15.352;2023-08-17T05:05:41;98506.53;;;19.69;84.85
77799;BME280;66989;50.426;15.352;2023-08-17T05:08:06;98509.84;;;19.71;84.86
77799;BME280;66989;50.426;15.352;2023-08-17T05:10:33;98515.06;;;19.73;84.77
77799;BME280;66989;50.426;15.352;2023-08-17T05:12:58;98506.91;;;19.74;84.76
77799;BME280;66989;50.426;15.352;2023-08-17T05:15:24;98513.59;;;19.78;84.84
77799;BME280;66989;50.426;15.352;2023-08-17T05:17:49;98503.38;;;19.82;84.87
77799;BME280;66989;50.426;15.352;2023-08-17T05:20:14;98508.56;;;19.83;84.43
77799;BME280;66989;50.426;15.352;2023-08-17T05:22:40;98510.38;;;19.83;84.52
77799;BME280;66989;50.426;15.352;2023-08-17T05:25:05;98507.06;;;19.81;84.35
77799;BME280;66989;50.426;15.352;2023-08-17T05:27:31;98507.22;;;19.79;84.91
77799;BME280;66989;50.426;15.352;2023-08-17T05:29:56;98518.75;;;19.80;84.83
77799;BME280;66989;50.426;15.352;2023-08-17T05:32:22;98525.47;;;19.84;84.78
77799;BME280;66989;50.426;15.352;2023-08-17T05:34:48;98519.59;;;19.88;84.87
77799;BME280;66989;50.426;15.352;2023-08-17T05:37:13;98524.28;;;19.94;84.53
77799;BME280;66989;50.426;15.352;2023-08-17T05:39:40;98519.72;;;20.03;84.32
77799;BME280;66989;50.426;15.352;2023-08-17T05:42:06;98519.56;;;20.13;84.05
77799;BME280;66989;50.426;15.352;2023-08-17T05:44:31;98520.88;;;20.25;83.87
77799;BME280;66989;50.426;15.352;2023-08-17T05:46:57;98521.00;;;20.40;83.48
77799;BME280;66989;50.426;15.352;2023-08-17T05:49:22;98524.63;;;20.55;82.83
77799;BME280;66989;50.426;15.352;2023-08-17T05:51:48;98521.75;;;20.65;81.63
77799;BME280;66989;50.426;15.352;2023-08-17T05:54:13;98521.72;;;20.81;81.60
77799;BME280;66989;50.426;15.352;2023-08-17T05:56:39;98524.78;;;21.01;80.96
77799;BME280;66989;50.426;15.352;2023-08-17T05:59:10;98530.75;;;21.19;80.66
77799;BME280;66989;50.426;15.352;2023-08-17T06:01:35;98528.25;;;21.41;80.58
77799;BME280;66989;50.426;15.352;2023-08-17T06:04:01;98532.66;;;21.57;80.19
77799;BME280;66989;50.426;15.352;2023-08-17T06:06:27;98533.78;;;21.70;79.68
77799;BME280;66989;50.426;15.352;2023-08-17T06:08:52;98535.31;;;21.88;79.58
77799;BME280;66989;50.426;15.352;2023-08-17T06:11:18;98533.50;;;22.03;78.90
77799;BME280;66989;50.426;15.352;2023-08-17T06:13:43;98535.53;;;22.16;77.40
77799;BME280;66989;50.426;15.352;2023-08-17T06:16:09;98534.38;;;22.33;76.59
77799;BME280;66989;50.426;15.352;2023-08-17T06:18:35;98536.13;;;22.41;75.71
77799;BME280;66989;50.426;15.352;2023-08-17T06:21:01;98530.59;;;22.42;75.04
77799;BME280;66989;50.426;15.352;2023-08-17T06:23:26;98527.19;;;22.48;75.42
77799;BME280;66989;50.426;15.352;2023-08-17T06:25:56;98523.75;;;22.54;75.00
77799;BME280;66989;50.426;15.352;2023-08-17T06:28:22;98525.59;;;22.84;74.66
77799;BME280;66989;50.426;15.352;2023-08-17T06:30:51;98520.97;;;23.14;73.49
77799;BME280;66989;50.426;15.352;2023-08-17T06:33:17;98524.41;;;23.22;72.67
77799;BME280;66989;50.426;15.352;2023-08-17T06:35:42;98521.31;;;23.40;71.86
77799;BME280;66989;50.426;15.352;2023-08-17T06:38:08;98519.59;;;23.54;71.84
77799;BME280;66989;50.426;15.352;2023-08-17T06:40:33;98520.56;;;23.68;70.35
77799;BME280;66989;50.426;15.352;2023-08-17T06:42:58;98520.91;;;23.86;70.20
77799;BME280;66989;50.426;15.352;2023-08-17T06:45:24;98525.63;;;24.05;69.87
77799;BME280;66989;50.426;15.352;2023-08-17T06:47:50;98524.59;;;24.28;68.82
77799;BME280;66989;50.426;15.352;2023-08-17T06:50:15;98515.16;;;24.45;67.96
77799;BME280;66989;50.426;15.352;2023-08-17T06:52:40;98522.22;;;24.46;67.20
77799;BME280;66989;50.426;15.352;2023-08-17T06:55:06;98519.84;;;24.65;67.14
77799;BME280;66989;50.426;15.352;2023-08-17T06:57:32;98529.22;;;24.75;66.49
77799;BME280;66989;50.426;15.352;2023-08-17T06:59:57;98523.19;;;24.73;66.05
77799;BME280;66989;50.426;15.352;2023-08-17T07:02:23;98518.97;;;24.99;65.73
77799;BME280;66989;50.426;15.352;2023-08-17T07:04:48;98523.41;;;25.13;65.71
77799;BME280;66989;50.426;15.352;2023-08-17T07:07:13;98522.50;;;24.99;66.38
77799;BME280;66989;50.426;15.352;2023-08-17T07:09:39;98519.03;;;25.05;66.68
77799;BME280;66989;50.426;15.352;2023-08-17T07:12:05;98514.91;;;25.23;65.95
77799;BME280;66989;50.426;15.352;2023-08-17T07:14:30;98516.03;;;25.55;65.41
77799;BME280;66989;50.426;15.352;2023-08-17T07:16:56;98519.00;;;25.86;64.17
77799;BME280;66989;50.426;15.352;2023-08-17T07:19:22;98515.63;;;26.24;63.25
77799;BME280;66989;50.426;15.352;2023-08-17T07:21:47;98523.56;;;26.39;61.98
77799;BME280;66989;50.426;15.352;2023-08-17T07:24:14;98522.47;;;26.60;61.24
77799;BME280;66989;50.426;15.352;2023-08-17T07:26:40;98516.78;;;26.88;60.16
77799;BME280;66989;50.426;15.352;2023-08-17T07:29:05;98520.06;;;27.03;59.50
77799;BME280;66989;50.426;15.352;2023-08-17T07:31:31;98517.56;;;26.95;59.92
77799;BME280;66989;50.426;15.352;2023-08-17T07:33:58;98516.16;;;26.92;59.53
77799;BME280;66989;50.426;15.352;2023-08-17T07:36:24;98510.09;;;26.97;58.97
77799;BME280;66989;50.426;15.352;2023-08-17T07:38:49;98513.38;;;27.06;60.52
77799;BME280;66989;50.426;15.352;2023-08-17T07:41:14;98523.91;;;27.27;58.30
77799;BME280;66989;50.426;15.352;2023-08-17T07:43:40;98522.16;;;27.08;58.78
77799;BME280;66989;50.426;15.352;2023-08-17T07:46:05;98517.75;;;27.00;58.47
77799;BME280;66989;50.426;15.352;2023-08-17T07:48:30;98530.47;;;27.06;59.04
77799;BME280;66989;50.426;15.352;2023-08-17T07:50:59;98525.59;;;27.22;58.89
77799;BME280;66989;50.426;15.352;2023-08-17T07:53:25;98522.88;;;27.28;58.70
77799;BME280;66989;50.426;15.352;2023-08-17T07:55:50;98514.22;;;27.83;57.19
77799;BME280;66989;50.426;15.352;2023-08-17T07:58:16;98521.09;;;28.10;56.25
77799;BME280;66989;50.426;15.352;2023-08-17T08:00:41;98510.34;;;28.65;55.86
77799;BME280;66989;50.426;15.352;2023-08-17T08:03:07;98511.88;;;29.28;53.96
77799;BME280;66989;50.426;15.352;2023-08-17T08:05:32;98516.34;;;29.83;52.33
77799;BME280;66989;50.426;15.352;2023-08-17T08:07:57;98514.97;;;30.27;51.10
77799;BME280;66989;50.426;15.352;2023-08-17T08:10:23;98509.91;;;30.54;49.68
77799;BME280;66989;50.426;15.352;2023-08-17T08:12:48;98518.25;;;30.06;50.22
77799;BME280;66989;50.426;15.352;2023-08-17T08:15:13;98518.88;;;30.08;49.95
77799;BME280;66989;50.426;15.352;2023-08-17T08:17:39;98512.47;;;30.02;50.43
77799;BME280;66989;50.426;15.352;2023-08-17T08:20:05;98514.06;;;30.33;49.99
77799;BME280;66989;50.426;15.352;2023-08-17T08:22:30;98500.31;;;30.51;49.61
77799;BME280;66989;50.426;15.352;2023-08-17T08:24:55;98512.75;;;30.59;49.94
77799;BME280;66989;50.426;15.352;2023-08-17T08:27:21;98509.41;;;30.57;49.40
77799;BME280;66989;50.426;15.352;2023-08-17T08:29:46;98503.97;;;30.57;49.11
77799;BME280;66989;50.426;15.352;2023-08-17T08:32:12;98503.84;;;30.28;50.29
77799;BME280;66989;50.426;15.352;2023-08-17T08:34:37;98503.97;;;30.57;48.17
77799;BME280;66989;50.426;15.352;2023-08-17T08:37:03;98503.13;;;30.68;49.48
77799;BME280;66989;50.426;15.352;2023-08-17T08:39:28;98492.56;;;30.84;48.70
77799;BME280;66989;50.426;15.352;2023-08-17T08:41:53;98492.91;;;31.27;48.58
77799;BME280;66989;50.426;15.352;2023-08-17T08:44:19;98499.19;;;31.56;46.48
77799;BME280;66989;50.426;15.352;2023-08-17T08:46:45;98491.31;;;31.43;46.31
77799;BME280;66989;50.426;15.352;2023-08-17T08:49:11;98487.25;;;31.74;45.61
77799;BME280;66989;50.426;15.352;2023-08-17T08:51:42;98487.66;;;32.33;45.78
77799;BME280;66989;50.426;15.352;2023-08-17T08:54:13;98492.84;;;32.52;43.83
77799;BME280;66989;50.426;15.352;2023-08-17T08:56:38;98488.22;;;32.02;44.81
77799;BME280;66989;50.426;15.352;2023-08-17T08:59:07;98479.47;;;32.33;43.65
77799;BME280;66989;50.426;15.352;2023-08-17T09:01:33;98485.94;;;32.27;45.03
77799;BME280;66989;50.426;15.352;2023-08-17T09:03:59;98479.59;;;32.44;44.36
77799;BME280;66989;50.426;15.352;2023-08-17T09:06:26;98470.13;;;32.68;44.38
77799;BME280;66989;50.426;15.352;2023-08-17T09:08:53;98472.50;;;32.65;44.75
77799;BME280;66989;50.426;15.352;2023-08-17T09:11:18;98475.56;;;32.68;44.65
77799;BME280;66989;50.426;15.352;2023-08-17T09:13:44;98470.13;;;32.68;44.69
77799;BME280;66989;50.426;15.352;2023-08-17T09:16:09;98466.44;;;33.01;44.49
77799;BME280;66989;50.426;15.352;2023-08-17T09:18:34;98468.41;;;33.28;44.33
77799;BME280;66989;50.426;15.352;2023-08-17T09:21:01;98472.22;;;33.05;44.32
77799;BME280;66989;50.426;15.352;2023-08-17T09:23:27;98467.28;;;32.80;44.62
77799;BME280;66989;50.426;15.352;2023-08-17T09:25:52;98470.59;;;32.43;46.14
77799;BME280;66989;50.426;15.352;2023-08-17T09:28:23;98471.56;;;32.54;45.16
77799;BME280;66989;50.426;15.352;2023-08-17T09:30:58;98477.34;;;31.85;46.91
77799;BME280;66989;50.426;15.352;2023-08-17T09:33:28;98469.13;;;31.23;48.86
77799;BME280;66989;50.426;15.352;2023-08-17T09:35:55;98472.19;;;30.86;49.76
77799;BME280;66989;50.426;15.352;2023-08-17T09:38:21;98466.59;;;30.29;50.67
77799;BME280;66989;50.426;15.352;2023-08-17T09:40:49;98473.47;;;29.96;51.46
77799;BME280;66989;50.426;15.352;2023-08-17T09:43:15;98477.34;;;29.47;52.62
77799;BME280;66989;50.426;15.352;2023-08-17T09:45:43;98485.41;;;29.23;53.83
77799;BME280;66989;50.426;15.352;2023-08-17T09:48:10;98475.69;;;29.16;54.31
77799;BME280;66989;50.426;15.352;2023-08-17T09:50:36;98478.16;;;28.69;53.41
77799;BME280;66989;50.426;15.352;2023-08-17T09:53:04;98481.25;;;28.72;54.25
77799;BME280;66989;50.426;15.352;2023-08-17T09:55:31;98473.00;;;28.61;54.91
77799;BME280;66989;50.426;15.352;2023-08-17T09:58:02;98480.25;;;28.48;54.81
77799;BME280;66989;50.426;15.352;2023-08-17T10:00:28;98474.69;;;28.43;54.83
77799;BME280;66989;50.426;15.352;2023-08-17T10:02:55;98475.00;;;28.29;56.20
77799;BME280;66989;50.426;15.352;2023-08-17T10:05:25;98480.34;;;28.17;57.04
77799;BME280;66989;50.426;15.352;2023-08-17T10:07:54;98467.78;;;28.41;55.67
77799;BME280;66989;50.426;15.352;2023-08-17T10:10:25;98473.69;;;28.56;56.53
77799;BME280;66989;50.426;15.352;2023-08-17T10:13:10;98468.56;;;28.85;56.17
77799;BME280;66989;50.426;15.352;2023-08-17T10:16:19;98468.75;;;29.01;56.08
77799;BME280;66989;50.426;15.352;2023-08-17T10:19:05;98471.09;;;28.98;55.71
77799;BME280;66989;50.426;15.352;2023-08-17T10:21:50;98469.44;;;29.15;54.76
77799;BME280;66989;50.426;15.352;2023-08-17T10:24:17;98469.16;;;29.35;54.30
77799;BME280;66989;50.426;15.352;2023-08-17T10:26:44;98469.72;;;29.67;53.59
77799;BME280;66989;50.426;15.352;2023-08-17T10:29:10;98466.31;;;29.72;52.69
77799;BME280;66989;50.426;15.352;2023-08-17T10:31:35;98464.59;;;29.59;54.04
77799;BME280;66989;50.426;15.352;2023-08-17T10:34:01;98457.16;;;29.55;54.21
77799;BME280;66989;50.426;15.352;2023-08-17T10:36:28;98463.78;;;29.59;53.73
77799;BME280;66989;50.426;15.352;2023-08-17T10:39:18;98455.16;;;29.50;53.72
77799;BME280;66989;50.426;15.352;2023-08-17T10:41:48;98462.53;;;29.31;53.60
77799;BME280;66989;50.426;15.352;2023-08-17T10:44:13;98455.72;;;29.52;53.17
77799;BME280;66989;50.426;15.352;2023-08-17T10:46:39;98451.66;;;29.73;52.69
77799;BME280;66989;50.426;15.352;2023-08-17T10:49:25;98443.47;;;29.61;52.05
77799;BME280;66989;50.426;15.352;2023-08-17T10:52:04;98441.34;;;29.63;51.48
77799;BME280;66989;50.426;15.352;2023-08-17T10:54:40;98450.03;;;29.42;52.16
77799;BME280;66989;50.426;15.352;2023-08-17T11:05:45;98444.59;;;30.54;50.45
77799;BME280;66989;50.426;15.352;2023-08-17T11:08:22;98437.25;;;31.23;48.96
77799;BME280;66989;50.426;15.352;2023-08-17T11:11:07;98439.81;;;31.75;46.69
77799;BME280;66989;50.426;15.352;2023-08-17T11:13:36;98425.25;;;32.81;43.48
77799;BME280;66989;50.426;15.352;2023-08-17T11:16:02;98427.34;;;33.23;40.89
77799;BME280;66989;50.426;15.352;2023-08-17T11:18:28;98430.56;;;33.79;38.96
77799;BME280;66989;50.426;15.352;2023-08-17T11:20:54;98433.06;;;33.48;39.51
77799;BME280;66989;50.426;15.352;2023-08-17T11:23:20;98422.13;;;33.48;39.67
77799;BME280;66989;50.426;15.352;2023-08-17T11:25:47;98427.78;;;34.01;38.83
77799;BME280;66989;50.426;15.352;2023-08-17T11:28:13;98420.63;;;35.05;36.64
77799;BME280;66989;50.426;15.352;2023-08-17T11:30:41;98415.72;;;35.17;36.76
77799;BME280;66989;50.426;15.352;2023-08-17T11:33:08;98423.97;;;36.19;35.96
77799;BME280;66989;50.426;15.352;2023-08-17T11:35:34;98410.44;;;36.58;34.72
77799;BME280;66989;50.426;15.352;2023-08-17T11:37:59;98418.97;;;36.36;34.00
77799;BME280;66989;50.426;15.352;2023-08-17T11:40:26;98416.50;;;36.40;32.42
77799;BME280;66989;50.426;15.352;2023-08-17T11:42:52;98412.28;;;36.73;32.94
77799;BME280;66989;50.426;15.352;2023-08-17T11:45:18;98419.59;;;36.13;33.99
77799;BME280;66989;50.426;15.352;2023-08-17T11:47:43;98403.00;;;36.64;33.94
77799;BME280;66989;50.426;15.352;2023-08-17T11:50:10;98403.66;;;37.39;33.01
77799;BME280;66989;50.426;15.352;2023-08-17T11:52:36;98398.00;;;37.60;32.29
77799;BME280;66989;50.426;15.352;2023-08-17T11:55:06;98396.13;;;37.55;32.38
77799;BME280;66989;50.426;15.352;2023-08-17T11:57:32;98389.84;;;37.49;34.33
77799;BME280;66989;50.426;15.352;2023-08-17T11:59:59;98391.00;;;37.38;34.01
77799;BME280;66989;50.426;15.352;2023-08-17T12:02:26;98392.16;;;37.32;34.88
77799;BME280;66989;50.426;15.352;2023-08-17T12:04:52;98403.53;;;37.60;33.63
77799;BME280;66989;50.426;15.352;2023-08-17T12:07:18;98405.81;;;36.49;34.32
77799;BME280;66989;50.426;15.352;2023-08-17T12:09:48;98390.06;;;37.14;33.65
77799;BME280;66989;50.426;15.352;2023-08-17T12:12:17;98395.09;;;37.07;34.01
77799;BME280;66989;50.426;15.352;2023-08-17T12:14:42;98389.00;;;37.10;34.01
77799;BME280;66989;50.426;15.352;2023-08-17T12:17:16;98392.09;;;36.98;34.27
77799;BME280;66989;50.426;15.352;2023-08-17T12:19:43;98384.53;;;36.75;34.08
77799;BME280;66989;50.426;15.352;2023-08-17T12:22:08;98388.78;;;36.31;35.32
77799;BME280;66989;50.426;15.352;2023-08-17T12:24:34;98391.09;;;35.58;36.02
77799;BME280;66989;50.426;15.352;2023-08-17T12:27:07;98385.81;;;35.10;37.00
77799;BME280;66989;50.426;15.352;2023-08-17T12:29:33;98390.00;;;34.50;38.19
77799;BME280;66989;50.426;15.352;2023-08-17T12:32:02;98376.38;;;34.13;38.98
77799;BME280;66989;50.426;15.352;2023-08-17T12:34:27;98384.63;;;33.44;39.59
77799;BME280;66989;50.426;15.352;2023-08-17T12:36:52;98378.28;;;33.70;39.48
77799;BME280;66989;50.426;15.352;2023-08-17T12:39:18;98360.13;;;33.96;38.71
77799;BME280;66989;50.426;15.352;2023-08-17T12:41:43;98364.56;;;34.02;38.63
77799;BME280;66989;50.426;15.352;2023-08-17T12:44:09;98360.22;;;33.69;37.43
77799;BME280;66989;50.426;15.352;2023-08-17T12:46:41;98346.47;;;33.96;37.61
77799;BME280;66989;50.426;15.352;2023-08-17T12:49:07;98345.00;;;34.31;37.12
77799;BME280;66989;50.426;15.352;2023-08-17T12:51:32;98344.00;;;33.95;37.26
77799;BME280;66989;50.426;15.352;2023-08-17T12:53:57;98344.28;;;34.03;38.20
77799;BME280;66989;50.426;15.352;2023-08-17T12:56:23;98342.03;;;33.90;39.20